createdAt,value
2017-08-06T00:01:19.497Z,59.30
2017-08-06T00:03:45.747Z,59.30
2017-08-06T00:06:12.750Z,59.40
2017-08-06T00:08:39.003Z,59.40
2017-08-06T00:11:05.644Z,59.50
2017-08-06T00:13:31.923Z,59.60
2017-08-06T00:15:58.192Z,59.60
2017-08-06T00:18:25.215Z,59.70
2017-08-06T00:20:51.466Z,59.60
2017-08-06T00:23:17.700Z,59.60
2017-08-06T00:25:43.956Z,59.70
2017-08-06T00:28:10.217Z,59.90
2017-08-06T00:30:36.493Z,60.00
2017-08-06T00:33:03.291Z,59.90
2017-08-06T00:35:29.554Z,60.00
2017-08-06T00:37:55.808Z,60.00
2017-08-06T00:40:22.852Z,61.00
2017-08-06T00:42:49.116Z,60.30
2017-08-06T00:45:16.127Z,59.90
2017-08-06T00:47:42.398Z,59.80
2017-08-06T00:50:09.422Z,60.10
2017-08-06T00:52:35.676Z,60.00
2017-08-06T00:57:34.428Z,60.40
2017-08-06T01:00:00.691Z,60.30
2017-08-06T01:02:26.935Z,60.40
2017-08-06T01:04:53.333Z,60.50
2017-08-06T01:07:20.474Z,60.10
2017-08-06T01:09:47.462Z,60.20
2017-08-06T01:12:13.761Z,60.10
2017-08-06T01:14:40.751Z,60.30
2017-08-06T01:17:07.002Z,60.30
2017-08-06T01:19:33.312Z,60.40
2017-08-06T01:22:06.608Z,60.50
2017-08-06T01:24:32.855Z,60.50
2017-08-06T01:26:59.123Z,60.50
2017-08-06T01:29:25.377Z,60.50
2017-08-06T01:31:52.394Z,60.60
2017-08-06T01:34:18.652Z,60.60
2017-08-06T01:36:45.654Z,61.20
2017-08-06T01:39:12.282Z,61.20
2017-08-06T01:41:38.548Z,61.20
2017-08-06T01:44:04.842Z,61.60
2017-08-06T01:46:31.927Z,61.70
2017-08-06T01:48:58.170Z,61.70
2017-08-06T01:51:24.422Z,61.80
2017-08-06T01:53:50.697Z,61.90
2017-08-06T01:56:17.686Z,61.80
2017-08-06T01:58:43.939Z,61.80
2017-08-06T02:01:11.055Z,62.00
2017-08-06T02:03:38.043Z,62.00
2017-08-06T02:06:04.295Z,62.00
2017-08-06T02:08:43.777Z,62.30
2017-08-06T02:11:11.630Z,62.50
2017-08-06T02:13:38.628Z,62.90
2017-08-06T02:16:04.905Z,62.50
2017-08-06T02:18:31.911Z,63.00
2017-08-06T02:20:58.216Z,62.50
2017-08-06T02:23:25.083Z,62.60
2017-08-06T02:25:51.334Z,62.60
2017-08-06T02:28:17.601Z,62.70
2017-08-06T02:30:43.929Z,62.60
2017-08-06T02:33:10.195Z,62.70
2017-08-06T02:35:37.208Z,62.60
2017-08-06T02:38:05.111Z,62.60
2017-08-06T02:40:31.376Z,62.90
2017-08-06T02:42:57.652Z,63.20
2017-08-06T02:45:26.718Z,63.50
2017-08-06T02:47:52.967Z,63.40
2017-08-06T02:50:19.226Z,63.50
2017-08-06T02:52:45.515Z,63.30
2017-08-06T02:55:11.803Z,63.10
2017-08-06T02:57:38.064Z,63.10
2017-08-06T03:00:05.093Z,63.40
2017-08-06T03:02:31.378Z,62.80
2017-08-06T03:04:57.639Z,62.90
2017-08-06T03:07:25.251Z,62.60
2017-08-06T03:09:51.504Z,62.50
2017-08-06T03:12:20.127Z,62.70
2017-08-06T03:14:48.076Z,62.90
2017-08-06T03:17:14.362Z,63.30
2017-08-06T03:19:40.619Z,63.40
2017-08-06T03:22:07.647Z,63.60
2017-08-06T03:24:33.911Z,63.60
2017-08-06T03:27:07.058Z,63.70
2017-08-06T03:29:33.319Z,63.90
2017-08-06T03:31:59.603Z,63.90
2017-08-06T03:34:25.944Z,64.10
2017-08-06T03:36:52.195Z,64.20
2017-08-06T03:39:18.483Z,64.40
2017-08-06T03:41:45.499Z,64.20
2017-08-06T03:44:11.767Z,64.10
2017-08-06T03:46:38.792Z,64.00
2017-08-06T03:49:07.539Z,64.00
2017-08-06T03:51:33.804Z,63.30
2017-08-06T03:54:00.113Z,63.70
2017-08-06T03:56:28.095Z,63.80
2017-08-06T03:58:54.343Z,64.00
2017-08-06T04:01:20.603Z,64.10
2017-08-06T04:03:46.895Z,64.10
2017-08-06T04:06:13.136Z,64.20
2017-08-06T04:08:39.425Z,64.10
2017-08-06T04:11:07.638Z,64.20
2017-08-06T04:13:35.401Z,64.20
2017-08-06T04:16:01.672Z,64.10
2017-08-06T04:18:27.943Z,64.20
2017-08-06T04:20:54.188Z,64.20
2017-08-06T04:23:21.201Z,64.30
2017-08-06T04:25:47.724Z,64.30
2017-08-06T04:28:14.112Z,64.40
2017-08-06T04:30:40.379Z,64.60
2017-08-06T04:33:07.571Z,64.60
2017-08-06T04:35:33.864Z,64.40
2017-08-06T04:38:07.055Z,64.40
2017-08-06T04:40:33.319Z,64.60
2017-08-06T04:42:59.607Z,64.60
2017-08-06T04:45:26.650Z,64.50
2017-08-06T04:47:52.915Z,64.30
2017-08-06T04:50:19.182Z,63.90
2017-08-06T04:52:46.228Z,63.90
2017-08-06T04:55:12.506Z,64.20
2017-08-06T04:57:38.751Z,64.40
2017-08-06T05:00:05.946Z,64.50
2017-08-06T05:02:32.200Z,64.40
2017-08-06T05:04:58.459Z,64.50
2017-08-06T05:07:24.741Z,64.30
2017-08-06T05:09:51.011Z,64.50
2017-08-06T05:12:17.246Z,64.40
2017-08-06T05:14:44.902Z,65.30
2017-08-06T05:17:11.275Z,64.80
2017-08-06T05:19:37.566Z,64.90
2017-08-06T05:22:03.866Z,65.10
2017-08-06T05:24:30.867Z,64.90
2017-08-06T05:26:57.132Z,64.50
2017-08-06T05:29:24.334Z,64.50
2017-08-06T05:31:50.583Z,64.40
2017-08-06T05:34:16.878Z,64.30
2017-08-06T05:36:43.763Z,64.30
2017-08-06T05:39:10.052Z,64.30
2017-08-06T05:41:36.306Z,64.50
2017-08-06T05:44:03.330Z,64.70
2017-08-06T05:46:29.617Z,64.70
2017-08-06T05:48:55.871Z,65.00
2017-08-06T05:51:22.957Z,65.50
2017-08-06T05:53:49.206Z,65.00
2017-08-06T05:56:15.526Z,64.50
2017-08-06T05:58:41.908Z,64.80
2017-08-06T06:01:08.940Z,64.80
2017-08-06T06:03:35.975Z,64.80
2017-08-06T06:06:02.308Z,64.70
2017-08-06T06:08:28.596Z,64.80
2017-08-06T06:10:54.895Z,64.90
2017-08-06T06:13:21.379Z,64.60
2017-08-06T06:15:58.603Z,64.70
2017-08-06T06:18:25.725Z,64.50
2017-08-06T06:20:52.011Z,64.80
2017-08-06T06:23:19.060Z,65.10
2017-08-06T06:25:45.545Z,64.20
2017-08-06T06:28:11.814Z,64.10
2017-08-06T06:30:38.086Z,63.60
2017-08-06T06:33:05.136Z,63.50
2017-08-06T06:35:32.137Z,63.40
2017-08-06T06:37:59.191Z,63.50
2017-08-06T06:40:26.436Z,63.50
2017-08-06T06:42:52.713Z,64.10
2017-08-06T06:45:18.997Z,64.10
2017-08-06T06:47:45.440Z,64.10
2017-08-06T06:50:11.691Z,63.80
2017-08-06T06:52:37.950Z,63.50
2017-08-06T06:55:04.244Z,63.30
2017-08-06T06:57:30.513Z,63.10
2017-08-06T06:59:56.799Z,63.50
2017-08-06T07:02:23.867Z,63.50
2017-08-06T07:04:50.156Z,63.30
2017-08-06T07:07:17.214Z,62.90
2017-08-06T07:09:43.507Z,62.90
2017-08-06T07:12:09.774Z,64.10
2017-08-06T07:14:36.829Z,62.80
2017-08-06T07:17:04.620Z,62.00
2017-08-06T07:19:31.634Z,62.40
2017-08-06T07:21:57.902Z,62.30
2017-08-06T07:24:24.988Z,62.80
2017-08-06T07:26:51.259Z,62.70
2017-08-06T07:29:17.524Z,62.20
2017-08-06T07:31:44.576Z,61.60
2017-08-06T07:34:10.853Z,61.50
2017-08-06T07:36:37.135Z,62.00
2017-08-06T07:39:03.623Z,62.30
2017-08-06T07:41:29.895Z,62.50
2017-08-06T07:43:56.172Z,62.50
2017-08-06T07:46:23.259Z,62.40
2017-08-06T07:48:49.557Z,62.30
2017-08-06T07:51:15.883Z,61.80
2017-08-06T07:53:42.376Z,62.00
2017-08-06T07:56:08.648Z,61.70
2017-08-06T07:58:34.923Z,60.80
2017-08-06T08:01:01.388Z,60.50
2017-08-06T08:03:27.676Z,60.80
2017-08-06T08:05:55.591Z,61.30
2017-08-06T08:08:22.452Z,61.30
2017-08-06T08:10:48.766Z,61.10
2017-08-06T08:13:15.045Z,61.20
2017-08-06T08:15:41.341Z,61.40
2017-08-06T08:18:08.591Z,61.00
2017-08-06T08:20:35.595Z,59.60
2017-08-06T08:23:01.939Z,59.60
2017-08-06T08:25:28.214Z,59.80
2017-08-06T08:27:54.499Z,59.70
2017-08-06T08:30:21.314Z,59.80
2017-08-06T08:32:47.583Z,60.00
2017-08-06T08:35:13.863Z,60.00
2017-08-06T08:37:40.167Z,59.70
2017-08-06T08:40:07.186Z,59.80
2017-08-06T08:42:33.459Z,59.70
2017-08-06T08:44:59.763Z,59.60
2017-08-06T08:47:26.027Z,59.90
2017-08-06T08:49:52.287Z,59.20
2017-08-06T08:52:20.288Z,57.30
2017-08-06T08:54:46.559Z,57.30
2017-08-06T08:57:12.816Z,57.90
2017-08-06T08:59:39.868Z,58.20
2017-08-06T09:02:06.134Z,58.20
2017-08-06T09:04:32.462Z,57.90
2017-08-06T09:06:59.639Z,57.10
2017-08-06T09:09:25.948Z,57.00
2017-08-06T09:11:52.956Z,57.60
2017-08-06T09:14:19.771Z,57.50
2017-08-06T09:16:46.079Z,57.00
2017-08-06T09:19:13.770Z,57.20
2017-08-06T09:21:40.219Z,57.30
2017-08-06T09:24:06.495Z,57.20
2017-08-06T09:26:32.760Z,57.10
2017-08-06T09:28:59.778Z,57.60
2017-08-06T09:31:26.047Z,57.00
2017-08-06T09:33:53.061Z,56.30
2017-08-06T09:36:20.180Z,56.30
2017-08-06T09:38:46.479Z,56.10
2017-08-06T09:41:13.517Z,57.50
2017-08-06T09:43:39.822Z,57.00
2017-08-06T09:46:06.123Z,57.20
2017-08-06T09:48:33.126Z,55.80
2017-08-06T09:50:59.415Z,55.80
2017-08-06T09:53:26.435Z,55.10
2017-08-06T09:55:53.487Z,53.80
2017-08-06T09:58:20.492Z,53.80
2017-08-06T10:00:46.780Z,54.20
2017-08-06T10:03:13.836Z,55.00
2017-08-06T10:05:40.857Z,55.60
2017-08-06T10:08:07.167Z,55.60
2017-08-06T10:10:33.431Z,56.30
2017-08-06T10:12:59.735Z,56.30
2017-08-06T10:15:25.999Z,56.20
2017-08-06T10:17:52.291Z,56.20
2017-08-06T10:20:20.010Z,56.20
2017-08-06T10:22:46.262Z,56.00
2017-08-06T10:25:12.565Z,56.10
2017-08-06T10:27:38.949Z,56.00
2017-08-06T10:30:05.207Z,56.40
2017-08-06T10:32:32.203Z,55.40
2017-08-06T10:34:58.621Z,55.40
2017-08-06T10:37:29.608Z,55.70
2017-08-06T10:39:56.250Z,56.10
2017-08-06T10:42:23.483Z,55.20
2017-08-06T10:44:49.811Z,54.40
2017-08-06T10:47:16.101Z,54.30
2017-08-06T10:49:43.127Z,55.80
2017-08-06T10:52:09.412Z,55.80
2017-08-06T10:54:35.699Z,56.40
2017-08-06T10:57:01.984Z,57.10
2017-08-06T10:59:28.272Z,56.40
2017-08-06T11:01:54.543Z,57.30
2017-08-06T11:04:22.131Z,56.30
2017-08-06T11:06:48.395Z,56.40
2017-08-06T11:09:14.667Z,56.40
2017-08-06T11:11:41.776Z,56.90
2017-08-06T11:14:08.031Z,56.90
2017-08-06T11:16:34.352Z,56.40
2017-08-06T11:19:00.800Z,55.80
2017-08-06T11:21:28.443Z,54.10
2017-08-06T11:23:54.776Z,54.00
2017-08-06T11:26:21.184Z,54.60
2017-08-06T11:28:48.170Z,54.90
2017-08-06T11:31:14.460Z,54.70
2017-08-06T11:33:41.625Z,55.40
2017-08-06T11:36:07.907Z,55.20
2017-08-06T11:38:34.159Z,55.70
2017-08-06T11:41:00.435Z,55.00
2017-08-06T11:43:27.431Z,53.10
2017-08-06T11:45:53.701Z,53.00
2017-08-06T11:48:21.101Z,52.30
2017-08-06T11:50:47.393Z,51.70
2017-08-06T11:53:14.408Z,54.80
2017-08-06T11:55:40.927Z,54.30
2017-08-06T11:58:07.506Z,53.70
2017-08-06T12:00:33.891Z,54.10
2017-08-06T12:03:00.183Z,54.20
2017-08-06T12:05:26.642Z,54.40
2017-08-06T12:07:52.945Z,54.90
2017-08-06T12:10:19.611Z,54.60
2017-08-06T12:12:46.137Z,53.40
2017-08-06T12:15:13.267Z,52.80
2017-08-06T12:17:39.679Z,52.80
2017-08-06T12:20:06.121Z,52.60
2017-08-06T12:22:33.379Z,51.80
2017-08-06T12:24:59.673Z,51.80
2017-08-06T12:27:25.958Z,52.00
2017-08-06T12:29:52.482Z,52.10
2017-08-06T12:32:19.973Z,52.40
2017-08-06T12:34:46.293Z,52.70
2017-08-06T12:37:12.621Z,51.90
2017-08-06T12:39:39.683Z,51.80
2017-08-06T12:42:06.671Z,51.30
2017-08-06T12:44:32.977Z,51.30
2017-08-06T12:47:00.927Z,50.90
2017-08-06T12:49:27.184Z,50.80
2017-08-06T12:51:54.183Z,51.80
2017-08-06T12:54:22.221Z,52.30
2017-08-06T12:56:48.495Z,52.20
2017-08-06T12:59:14.746Z,51.10
2017-08-06T13:01:41.059Z,50.70
2017-08-06T13:04:07.436Z,50.60
2017-08-06T13:06:34.457Z,50.50
2017-08-06T13:09:00.871Z,50.50
2017-08-06T13:11:27.152Z,50.90
2017-08-06T13:13:53.411Z,51.10
2017-08-06T13:16:20.583Z,50.40
2017-08-06T13:18:46.864Z,50.50
2017-08-06T13:21:13.160Z,52.70
2017-08-06T13:23:39.811Z,58.30
2017-08-06T13:26:06.071Z,55.70
2017-08-06T13:28:32.322Z,53.70
2017-08-06T13:30:58.603Z,53.50
2017-08-06T13:33:24.880Z,52.10
2017-08-06T13:35:51.155Z,51.00
2017-08-06T13:38:18.335Z,49.00
2017-08-06T13:40:44.626Z,49.00
2017-08-06T13:43:11.674Z,49.70
2017-08-06T13:45:38.079Z,49.70
2017-08-06T13:48:04.367Z,49.70
2017-08-06T13:50:31.447Z,50.50
2017-08-06T13:52:57.739Z,50.50
2017-08-06T13:55:24.007Z,49.60
2017-08-06T13:57:50.264Z,50.00
2017-08-06T14:00:17.619Z,49.00
2017-08-06T14:02:43.944Z,50.20
2017-08-06T14:05:10.195Z,51.90
2017-08-06T14:07:36.490Z,53.90
2017-08-06T14:10:03.509Z,55.80
2017-08-06T14:12:29.803Z,55.20
2017-08-06T14:17:34.687Z,55.80
2017-08-06T14:20:01.935Z,55.70
2017-08-06T14:22:28.182Z,55.60
2017-08-06T14:24:55.523Z,56.10
2017-08-06T14:27:22.668Z,56.50
2017-08-06T14:29:48.927Z,56.80
2017-08-06T14:32:15.203Z,57.10
2017-08-06T14:34:41.588Z,56.50
2017-08-06T14:37:07.887Z,55.90
2017-08-06T14:39:34.179Z,55.60
2017-08-06T14:42:00.447Z,56.00
2017-08-06T14:44:26.683Z,55.20
2017-08-06T14:46:52.923Z,55.40
2017-08-06T14:49:19.327Z,55.50
2017-08-06T14:51:45.557Z,55.90
2017-08-06T14:54:11.790Z,56.60
2017-08-06T14:56:39.156Z,57.70
2017-08-06T14:59:05.407Z,58.00
2017-08-06T15:01:31.678Z,57.40
2017-08-06T15:03:57.940Z,56.80
2017-08-06T15:06:24.193Z,57.20
2017-08-06T15:08:50.462Z,57.60
2017-08-06T15:11:16.812Z,57.80
2017-08-06T15:13:43.095Z,57.90
2017-08-06T15:16:09.364Z,57.80
2017-08-06T15:18:36.580Z,58.00
2017-08-06T15:21:03.798Z,58.30
2017-08-06T15:23:30.049Z,58.20
2017-08-06T15:26:07.381Z,58.40
2017-08-06T15:28:34.551Z,57.70
2017-08-06T15:31:00.815Z,57.00
2017-08-06T15:33:27.075Z,56.40
2017-08-06T15:35:53.341Z,56.20
2017-08-06T15:38:19.575Z,54.80
2017-08-06T15:40:46.724Z,53.90
2017-08-06T15:43:12.993Z,55.40
2017-08-06T15:45:39.263Z,55.00
2017-08-06T15:48:05.887Z,55.30
2017-08-06T15:50:32.139Z,55.50
2017-08-06T15:52:58.386Z,55.00
2017-08-06T15:55:25.167Z,54.40
2017-08-06T15:57:51.600Z,54.30
2017-08-06T16:00:19.381Z,54.30
2017-08-06T16:02:46.599Z,54.60
2017-08-06T16:05:12.846Z,54.90
2017-08-06T16:07:39.095Z,55.30
2017-08-06T16:10:05.501Z,54.80
2017-08-06T16:12:31.760Z,54.60
2017-08-06T16:14:58.003Z,54.70
2017-08-06T16:17:24.264Z,54.40
2017-08-06T16:19:50.518Z,54.70
2017-08-06T16:22:16.772Z,55.30
2017-08-06T16:24:44.655Z,55.50
2017-08-06T16:27:22.453Z,55.70
2017-08-06T16:29:48.727Z,55.80
2017-08-06T16:32:14.990Z,55.60
2017-08-06T16:34:41.985Z,55.70
2017-08-06T16:37:08.262Z,55.70
2017-08-06T16:39:34.532Z,55.80
2017-08-06T16:42:00.775Z,55.00
2017-08-06T16:44:27.066Z,55.00
2017-08-06T16:46:54.056Z,55.30
2017-08-06T16:49:20.313Z,55.10
2017-08-06T16:51:46.586Z,55.10
2017-08-06T16:54:12.849Z,55.40
2017-08-06T16:56:39.111Z,55.40
2017-08-06T16:59:05.400Z,55.20
2017-08-06T17:01:31.651Z,55.00
2017-08-06T17:03:57.903Z,54.60
2017-08-06T17:06:25.015Z,54.20
2017-08-06T17:08:51.258Z,54.30
2017-08-06T17:11:17.501Z,54.40
2017-08-06T17:13:43.859Z,54.70
2017-08-06T17:16:10.103Z,54.30
2017-08-06T17:18:36.379Z,54.50
2017-08-06T17:21:03.394Z,54.60
2017-08-06T17:23:29.659Z,54.50
2017-08-06T17:25:55.995Z,54.30
2017-08-06T17:30:56.783Z,54.80
2017-08-06T17:33:23.198Z,55.00
2017-08-06T17:35:49.631Z,54.70
2017-08-06T17:38:15.883Z,54.90
2017-08-06T17:40:42.827Z,55.10
2017-08-06T17:43:10.103Z,55.10
2017-08-06T17:45:37.637Z,55.60
2017-08-06T17:48:04.616Z,55.50
2017-08-06T17:50:32.475Z,55.70
2017-08-06T17:52:59.298Z,55.40
2017-08-06T17:57:59.091Z,55.20
2017-08-06T18:00:25.335Z,55.20
2017-08-06T18:02:51.577Z,55.40
2017-08-06T18:05:17.850Z,55.30
2017-08-06T18:07:51.918Z,55.30
2017-08-06T18:10:18.200Z,55.50
2017-08-06T18:12:44.771Z,55.60
2017-08-06T18:15:11.023Z,55.80
2017-08-06T18:17:37.289Z,55.80
2017-08-06T18:20:03.544Z,55.90
2017-08-06T18:22:29.799Z,55.80
2017-08-06T18:24:56.845Z,55.70
2017-08-06T18:27:23.095Z,55.70
2017-08-06T18:29:50.659Z,55.60
2017-08-06T18:32:18.284Z,55.80
2017-08-06T18:34:45.047Z,55.40
2017-08-06T18:37:11.934Z,55.50
2017-08-06T18:39:38.483Z,55.60
2017-08-06T18:42:05.843Z,55.60
2017-08-06T18:44:32.325Z,55.90
2017-08-06T18:46:59.107Z,56.00
2017-08-06T18:49:25.470Z,56.20
2017-08-06T18:51:52.236Z,56.30
2017-08-06T18:54:19.386Z,56.50
2017-08-06T18:56:45.703Z,56.50
2017-08-06T18:59:12.096Z,56.40
2017-08-06T19:01:38.388Z,55.90
2017-08-06T19:04:04.940Z,56.10
2017-08-06T19:06:31.224Z,56.00
2017-08-06T19:08:57.498Z,56.30
2017-08-06T19:11:23.987Z,56.60
2017-08-06T19:13:50.651Z,56.40
2017-08-06T19:16:18.612Z,56.40
2017-08-06T19:18:44.946Z,56.30
2017-08-06T19:21:11.232Z,56.20
2017-08-06T19:23:37.512Z,57.10
2017-08-06T19:26:03.755Z,57.80
2017-08-06T19:28:30.643Z,56.90
2017-08-06T19:30:58.529Z,56.90
2017-08-06T19:33:24.879Z,57.10
2017-08-06T19:35:51.124Z,56.80
2017-08-06T19:38:17.613Z,57.00
2017-08-06T19:40:43.859Z,57.00
2017-08-06T19:43:10.519Z,57.20
2017-08-06T19:45:36.936Z,57.00
2017-08-06T19:48:03.207Z,57.00
2017-08-06T19:50:30.264Z,57.40
2017-08-06T19:52:56.563Z,57.40
2017-08-06T19:55:22.824Z,57.70
2017-08-06T19:57:51.625Z,57.60
2017-08-06T20:00:18.449Z,58.10
2017-08-06T20:02:46.311Z,58.00
2017-08-06T20:05:12.769Z,58.50
2017-08-06T20:07:39.202Z,58.80
2017-08-06T20:10:05.483Z,58.60
2017-08-06T20:12:31.767Z,58.60
2017-08-06T20:15:00.666Z,58.60
2017-08-06T20:17:26.981Z,58.60
2017-08-06T20:19:53.222Z,58.60
2017-08-06T20:22:19.590Z,58.70
2017-08-06T20:24:45.827Z,58.60
2017-08-06T20:27:12.074Z,58.60
2017-08-06T20:29:38.475Z,58.60
2017-08-06T20:32:07.530Z,58.70
2017-08-06T20:34:34.121Z,58.80
2017-08-06T20:37:01.291Z,58.80
2017-08-06T20:39:27.692Z,58.80
2017-08-06T20:41:54.505Z,59.00
2017-08-06T20:44:21.641Z,58.90
2017-08-06T20:46:48.490Z,58.80
2017-08-06T20:49:15.067Z,58.90
2017-08-06T20:51:41.794Z,59.00
2017-08-06T20:54:08.119Z,59.10
2017-08-06T20:56:34.708Z,59.30
2017-08-06T20:59:02.027Z,59.30
2017-08-06T21:01:28.403Z,59.40
2017-08-06T21:03:54.673Z,59.80
2017-08-06T21:06:20.975Z,59.90
2017-08-06T21:08:47.207Z,59.80
2017-08-06T21:11:13.708Z,60.10
2017-08-06T21:13:40.164Z,60.20
2017-08-06T21:16:06.403Z,60.40
2017-08-06T21:18:33.499Z,60.50
2017-08-06T21:20:59.956Z,60.60
2017-08-06T21:23:27.653Z,60.50
2017-08-06T21:25:54.047Z,60.50
2017-08-06T21:28:21.134Z,60.80
2017-08-06T21:30:47.835Z,61.00
2017-08-06T21:33:14.220Z,61.00
2017-08-06T21:35:40.466Z,61.10
2017-08-06T21:38:07.681Z,61.20
2017-08-06T21:40:33.931Z,61.20
2017-08-06T21:43:00.224Z,61.40
2017-08-06T21:45:26.494Z,61.50
2017-08-06T21:47:52.734Z,61.70
2017-08-06T21:50:20.590Z,61.70
2017-08-06T21:52:46.826Z,61.50
2017-08-06T21:55:13.079Z,61.90
2017-08-06T21:57:39.335Z,62.00
2017-08-06T22:00:05.574Z,62.00
2017-08-06T22:02:31.830Z,62.30
2017-08-06T22:04:58.179Z,62.30
2017-08-06T22:07:24.409Z,62.20
2017-08-06T22:09:50.642Z,62.50
2017-08-06T22:12:17.812Z,62.50
2017-08-06T22:14:44.043Z,62.30
2017-08-06T22:17:10.275Z,62.40
2017-08-06T22:19:36.535Z,62.60
2017-08-06T22:22:02.784Z,62.40
2017-08-06T22:24:29.030Z,62.30
2017-08-06T22:26:56.031Z,62.30
2017-08-06T22:29:22.270Z,62.30
2017-08-06T22:31:48.526Z,62.50
2017-08-06T22:34:16.919Z,62.80
2017-08-06T22:36:43.164Z,62.90
2017-08-06T22:39:09.410Z,62.90
2017-08-06T22:41:35.807Z,63.10
2017-08-06T22:44:02.057Z,63.00
2017-08-06T22:46:35.264Z,63.00
2017-08-06T22:49:01.500Z,63.20
2017-08-06T22:51:27.732Z,63.20
2017-08-06T22:53:54.061Z,63.30
2017-08-06T22:56:20.311Z,63.40
2017-08-06T22:58:47.388Z,63.20
2017-08-06T23:01:13.649Z,63.30
2017-08-06T23:03:39.891Z,63.30
2017-08-06T23:06:06.118Z,63.60
2017-08-06T23:08:32.505Z,63.60
2017-08-06T23:10:58.743Z,63.60
2017-08-06T23:13:24.988Z,63.60
2017-08-06T23:15:51.314Z,63.60
2017-08-06T23:18:17.599Z,63.60
2017-08-06T23:20:43.839Z,63.70
2017-08-06T23:23:10.093Z,63.80
2017-08-06T23:25:36.343Z,63.60
2017-08-06T23:28:02.590Z,63.80
2017-08-06T23:30:28.879Z,63.80
2017-08-06T23:32:55.130Z,63.80
2017-08-06T23:35:22.939Z,64.30
2017-08-06T23:37:51.647Z,64.70
2017-08-06T23:40:17.940Z,64.60
2017-08-06T23:42:44.251Z,64.90
2017-08-06T23:45:10.643Z,65.60
2017-08-06T23:47:36.895Z,65.00
2017-08-06T23:50:03.150Z,65.00
2017-08-06T23:52:29.558Z,65.00
2017-08-06T23:54:55.783Z,65.10
2017-08-06T23:57:22.050Z,65.00
2017-08-06T23:59:49.078Z,64.90
